sensor_id;sensor_type;location;lat;lon;timestamp;temperature;humidity
14517;DHT22;7344;50.864;4.362;2023-04-12T00:00:03;9.20;99.90
14517;DHT22;7344;50.864;4.362;2023-04-12T00:02:31;9.20;99.90
14517;DHT22;7344;50.864;4.362;2023-04-12T00:05:03;9.20;99.90
14517;DHT22;7344;50.864;4.362;2023-04-12T00:07:28;9.20;99.90
14517;DHT22;7344;50.864;4.362;2023-04-12T00:09:54;9.20;99.90
14517;DHT22;7344;50.864;4.362;2023-04-12T00:12:20;9.30;99.90
14517;DHT22;7344;50.864;4.362;2023-04-12T00:14:46;9.20;99.90
14517;DHT22;7344;50.864;4.362;2023-04-12T00:17:12;9.20;99.90
14517;DHT22;7344;50.864;4.362;2023-04-12T00:19:38;9.30;99.90
14517;DHT22;7344;50.864;4.362;2023-04-12T00:22:08;9.30;99.90
14517;DHT22;7344;50.864;4.362;2023-04-12T00:24:33;9.30;99.90
14517;DHT22;7344;50.864;4.362;2023-04-12T00:26:59;9.20;99.90
14517;DHT22;7344;50.864;4.362;2023-04-12T00:29:26;9.20;99.90
14517;DHT22;7344;50.864;4.362;2023-04-12T00:31:52;9.20;99.90
14517;DHT22;7344;50.864;4.362;2023-04-12T00:34:18;9.10;99.90
14517;DHT22;7344;50.864;4.362;2023-04-12T00:36:43;9.10;99.90
14517;DHT22;7344;50.864;4.362;2023-04-12T00:39:09;9.10;99.90
14517;DHT22;7344;50.864;4.362;2023-04-12T00:41:37;9.10;99.90
14517;DHT22;7344;50.864;4.362;2023-04-12T00:44:03;9.10;99.90
14517;DHT22;7344;50.864;4.362;2023-04-12T00:46:29;9.10;99.90
14517;DHT22;7344;50.864;4.362;2023-04-12T00:48:56;9.10;99.90
14517;DHT22;7344;50.864;4.362;2023-04-12T00:51:22;9.10;99.90
14517;DHT22;7344;50.864;4.362;2023-04-12T00:53:52;9.00;99.90
14517;DHT22;7344;50.864;4.362;2023-04-12T00:56:18;9.00;99.90
14517;DHT22;7344;50.864;4.362;2023-04-12T00:58:48;9.00;99.90
14517;DHT22;7344;50.864;4.362;2023-04-12T01:01:13;9.00;99.90
14517;DHT22;7344;50.864;4.362;2023-04-12T01:03:41;9.00;99.90
14517;DHT22;7344;50.864;4.362;2023-04-12T01:15:23;9.00;99.90
14517;DHT22;7344;50.864;4.362;2023-04-12T01:18:03;9.00;99.90
14517;DHT22;7344;50.864;4.362;2023-04-12T01:20:36;9.00;99.90
14517;DHT22;7344;50.864;4.362;2023-04-12T01:23:33;9.00;99.90
14517;DHT22;7344;50.864;4.362;2023-04-12T01:28:57;9.00;99.90
14517;DHT22;7344;50.864;4.362;2023-04-12T01:31:26;9.00;99.90
14517;DHT22;7344;50.864;4.362;2023-04-12T01:33:53;9.00;99.90
14517;DHT22;7344;50.864;4.362;2023-04-12T01:36:21;9.00;99.90
14517;DHT22;7344;50.864;4.362;2023-04-12T01:38:48;9.00;99.90
14517;DHT22;7344;50.864;4.362;2023-04-12T01:41:14;9.00;99.90
14517;DHT22;7344;50.864;4.362;2023-04-12T01:43:45;9.10;99.90
14517;DHT22;7344;50.864;4.362;2023-04-12T01:46:19;9.10;99.90
14517;DHT22;7344;50.864;4.362;2023-04-12T01:48:49;9.10;99.90
14517;DHT22;7344;50.864;4.362;2023-04-12T01:51:38;9.10;99.90
14517;DHT22;7344;50.864;4.362;2023-04-12T01:54:12;9.10;99.90
14517;DHT22;7344;50.864;4.362;2023-04-12T01:56:40;9.20;99.90
14517;DHT22;7344;50.864;4.362;2023-04-12T01:59:08;9.20;99.90
14517;DHT22;7344;50.864;4.362;2023-04-12T02:01:34;9.20;99.90
14517;DHT22;7344;50.864;4.362;2023-04-12T02:04:00;9.20;99.90
14517;DHT22;7344;50.864;4.362;2023-04-12T02:06:28;9.30;99.90
14517;DHT22;7344;50.864;4.362;2023-04-12T02:09:00;9.30;99.90
14517;DHT22;7344;50.864;4.362;2023-04-12T02:11:26;9.30;99.90
14517;DHT22;7344;50.864;4.362;2023-04-12T02:13:52;9.30;99.90
14517;DHT22;7344;50.864;4.362;2023-04-12T02:16:17;9.40;99.90
14517;DHT22;7344;50.864;4.362;2023-04-12T02:18:45;9.30;99.90
14517;DHT22;7344;50.864;4.362;2023-04-12T02:21:12;9.30;99.90
14517;DHT22;7344;50.864;4.362;2023-04-12T02:23:37;9.30;99.90
14517;DHT22;7344;50.864;4.362;2023-04-12T02:26:03;9.40;99.90
14517;DHT22;7344;50.864;4.362;2023-04-12T02:28:29;9.30;99.90
14517;DHT22;7344;50.864;4.362;2023-04-12T02:30:54;9.40;99.90
14517;DHT22;7344;50.864;4.362;2023-04-12T02:33:21;9.40;99.90
14517;DHT22;7344;50.864;4.362;2023-04-12T02:35:50;9.40;99.90
14517;DHT22;7344;50.864;4.362;2023-04-12T02:38:16;9.30;99.90
14517;DHT22;7344;50.864;4.362;2023-04-12T02:40:42;9.40;99.90
14517;DHT22;7344;50.864;4.362;2023-04-12T02:43:08;9.40;99.90
14517;DHT22;7344;50.864;4.362;2023-04-12T02:45:34;9.30;99.90
14517;DHT22;7344;50.864;4.362;2023-04-12T02:48:00;9.40;99.90
14517;DHT22;7344;50.864;4.362;2023-04-12T02:50:28;9.40;99.90
14517;DHT22;7344;50.864;4.362;2023-04-12T02:52:53;9.40;99.90
14517;DHT22;7344;50.864;4.362;2023-04-12T02:55:22;9.40;99.90
14517;DHT22;7344;50.864;4.362;2023-04-12T02:57:47;9.40;99.90
14517;DHT22;7344;50.864;4.362;2023-04-12T03:00:14;9.40;99.90
14517;DHT22;7344;50.864;4.362;2023-04-12T03:02:41;9.50;99.90
14517;DHT22;7344;50.864;4.362;2023-04-12T03:05:06;9.50;99.90
14517;DHT22;7344;50.864;4.362;2023-04-12T03:07:35;9.50;99.90
14517;DHT22;7344;50.864;4.362;2023-04-12T03:10:01;9.60;99.90
14517;DHT22;7344;50.864;4.362;2023-04-12T03:12:27;9.50;99.90
14517;DHT22;7344;50.864;4.362;2023-04-12T03:14:53;9.60;99.90
14517;DHT22;7344;50.864;4.362;2023-04-12T03:17:19;9.60;99.90
14517;DHT22;7344;50.864;4.362;2023-04-12T03:19:44;9.60;99.90
14517;DHT22;7344;50.864;4.362;2023-04-12T03:22:16;9.60;99.90
14517;DHT22;7344;50.864;4.362;2023-04-12T03:24:41;9.70;99.90
14517;DHT22;7344;50.864;4.362;2023-04-12T03:27:15;9.60;99.90
14517;DHT22;7344;50.864;4.362;2023-04-12T03:29:40;9.70;99.90
14517;DHT22;7344;50.864;4.362;2023-04-12T03:32:06;9.70;99.90
14517;DHT22;7344;50.864;4.362;2023-04-12T03:34:32;9.60;99.90
14517;DHT22;7344;50.864;4.362;2023-04-12T03:37:00;9.70;99.90
14517;DHT22;7344;50.864;4.362;2023-04-12T03:39:26;9.70;99.90
14517;DHT22;7344;50.864;4.362;2023-04-12T03:41:51;9.70;99.90
14517;DHT22;7344;50.864;4.362;2023-04-12T03:44:18;9.70;99.90
14517;DHT22;7344;50.864;4.362;2023-04-12T03:46:43;9.70;99.90
14517;DHT22;7344;50.864;4.362;2023-04-12T03:49:12;9.60;99.90
14517;DHT22;7344;50.864;4.362;2023-04-12T03:51:38;9.60;99.90
14517;DHT22;7344;50.864;4.362;2023-04-12T03:54:11;9.60;99.90
14517;DHT22;7344;50.864;4.362;2023-04-12T03:56:39;9.60;99.90
14517;DHT22;7344;50.864;4.362;2023-04-12T03:59:06;9.60;99.90
14517;DHT22;7344;50.864;4.362;2023-04-12T04:01:35;9.60;99.90
14517;DHT22;7344;50.864;4.362;2023-04-12T04:04:03;9.70;99.90
14517;DHT22;7344;50.864;4.362;2023-04-12T04:06:30;9.70;99.90
14517;DHT22;7344;50.864;4.362;2023-04-12T04:08:56;9.70;99.90
14517;DHT22;7344;50.864;4.362;2023-04-12T04:11:26;9.70;99.90
14517;DHT22;7344;50.864;4.362;2023-04-12T04:13:52;9.70;99.90
14517;DHT22;7344;50.864;4.362;2023-04-12T04:16:18;9.70;99.90
14517;DHT22;7344;50.864;4.362;2023-04-12T04:18:43;9.70;99.90
14517;DHT22;7344;50.864;4.362;2023-04-12T04:21:09;9.70;99.90
14517;DHT22;7344;50.864;4.362;2023-04-12T04:23:35;9.70;99.90
14517;DHT22;7344;50.864;4.362;2023-04-12T04:26:06;9.70;99.90
14517;DHT22;7344;50.864;4.362;2023-04-12T04:28:38;9.70;99.90
14517;DHT22;7344;50.864;4.362;2023-04-12T04:31:11;9.80;99.90
14517;DHT22;7344;50.864;4.362;2023-04-12T04:33:38;9.80;99.90
14517;DHT22;7344;50.864;4.362;2023-04-12T04:36:05;9.80;99.90
14517;DHT22;7344;50.864;4.362;2023-04-12T04:38:32;9.80;99.90
14517;DHT22;7344;50.864;4.362;2023-04-12T04:41:01;9.80;99.90
14517;DHT22;7344;50.864;4.362;2023-04-12T04:43:27;9.70;99.90
14517;DHT22;7344;50.864;4.362;2023-04-12T04:45:58;9.80;99.90
14517;DHT22;7344;50.864;4.362;2023-04-12T04:48:28;9.80;99.90
14517;DHT22;7344;50.864;4.362;2023-04-12T04:50:58;9.80;99.90
14517;DHT22;7344;50.864;4.362;2023-04-12T04:53:24;9.80;99.90
14517;DHT22;7344;50.864;4.362;2023-04-12T04:55:56;9.80;99.90
14517;DHT22;7344;50.864;4.362;2023-04-12T04:58:22;9.80;99.90
14517;DHT22;7344;50.864;4.362;2023-04-12T05:00:48;9.70;99.90
14517;DHT22;7344;50.864;4.362;2023-04-12T05:03:19;9.80;99.90
14517;DHT22;7344;50.864;4.362;2023-04-12T05:05:50;9.80;99.90
14517;DHT22;7344;50.864;4.362;2023-04-12T05:08:16;9.90;99.90
14517;DHT22;7344;50.864;4.362;2023-04-12T05:10:42;9.90;99.90
14517;DHT22;7344;50.864;4.362;2023-04-12T05:13:08;9.90;99.90
14517;DHT22;7344;50.864;4.362;2023-04-12T05:15:34;9.80;99.90
14517;DHT22;7344;50.864;4.362;2023-04-12T05:18:00;9.80;99.90
14517;DHT22;7344;50.864;4.362;2023-04-12T05:20:26;9.80;99.90
14517;DHT22;7344;50.864;4.362;2023-04-12T05:22:54;9.80;99.90
14517;DHT22;7344;50.864;4.362;2023-04-12T05:25:20;9.90;99.90
14517;DHT22;7344;50.864;4.362;2023-04-12T05:27:48;9.90;99.90
14517;DHT22;7344;50.864;4.362;2023-04-12T05:30:17;9.90;99.90
14517;DHT22;7344;50.864;4.362;2023-04-12T05:32:45;9.90;99.90
14517;DHT22;7344;50.864;4.362;2023-04-12T05:35:11;10.00;99.90
14517;DHT22;7344;50.864;4.362;2023-04-12T05:37:36;10.00;99.90
14517;DHT22;7344;50.864;4.362;2023-04-12T05:40:02;10.00;99.90
14517;DHT22;7344;50.864;4.362;2023-04-12T05:42:33;10.00;99.90
14517;DHT22;7344;50.864;4.362;2023-04-12T05:44:59;10.00;99.90
14517;DHT22;7344;50.864;4.362;2023-04-12T05:47:28;10.10;99.90
14517;DHT22;7344;50.864;4.362;2023-04-12T05:49:56;10.00;99.90
14517;DHT22;7344;50.864;4.362;2023-04-12T05:52:22;10.10;99.90
14517;DHT22;7344;50.864;4.362;2023-04-12T05:54:48;10.20;99.90
14517;DHT22;7344;50.864;4.362;2023-04-12T05:57:13;10.20;99.90
14517;DHT22;7344;50.864;4.362;2023-04-12T05:59:40;10.30;99.90
14517;DHT22;7344;50.864;4.362;2023-04-12T06:02:06;10.30;99.90
14517;DHT22;7344;50.864;4.362;2023-04-12T06:04:32;10.30;99.90
14517;DHT22;7344;50.864;4.362;2023-04-12T06:06:58;10.20;99.90
14517;DHT22;7344;50.864;4.362;2023-04-12T06:09:26;10.20;99.90
14517;DHT22;7344;50.864;4.362;2023-04-12T06:11:52;10.10;99.90
14517;DHT22;7344;50.864;4.362;2023-04-12T06:14:18;10.10;99.90
14517;DHT22;7344;50.864;4.362;2023-04-12T06:16:43;10.00;99.90
14517;DHT22;7344;50.864;4.362;2023-04-12T06:19:09;10.00;99.90
14517;DHT22;7344;50.864;4.362;2023-04-12T06:21:35;10.00;99.90
14517;DHT22;7344;50.864;4.362;2023-04-12T06:24:01;10.00;99.90
14517;DHT22;7344;50.864;4.362;2023-04-12T06:26:26;10.10;99.90
14517;DHT22;7344;50.864;4.362;2023-04-12T06:28:52;10.00;99.90
14517;DHT22;7344;50.864;4.362;2023-04-12T06:31:21;10.00;99.90
14517;DHT22;7344;50.864;4.362;2023-04-12T06:33:49;10.00;99.90
14517;DHT22;7344;50.864;4.362;2023-04-12T06:36:15;9.80;99.90
14517;DHT22;7344;50.864;4.362;2023-04-12T06:38:41;9.90;99.90
14517;DHT22;7344;50.864;4.362;2023-04-12T06:41:06;10.00;99.90
14517;DHT22;7344;50.864;4.362;2023-04-12T06:43:32;10.00;99.90
14517;DHT22;7344;50.864;4.362;2023-04-12T06:45:58;9.90;99.90
14517;DHT22;7344;50.864;4.362;2023-04-12T06:48:24;10.10;99.90
14517;DHT22;7344;50.864;4.362;2023-04-12T06:50:51;10.10;99.90
14517;DHT22;7344;50.864;4.362;2023-04-12T06:53:18;10.10;99.90
14517;DHT22;7344;50.864;4.362;2023-04-12T06:55:45;9.90;99.90
14517;DHT22;7344;50.864;4.362;2023-04-12T06:58:10;10.00;99.90
14517;DHT22;7344;50.864;4.362;2023-04-12T07:00:36;10.10;99.90
14517;DHT22;7344;50.864;4.362;2023-04-12T07:03:02;10.20;99.90
14517;DHT22;7344;50.864;4.362;2023-04-12T07:05:28;10.10;99.90
14517;DHT22;7344;50.864;4.362;2023-04-12T07:07:53;10.10;99.90
14517;DHT22;7344;50.864;4.362;2023-04-12T07:10:19;10.20;99.90
14517;DHT22;7344;50.864;4.362;2023-04-12T07:12:44;10.10;99.90
14517;DHT22;7344;50.864;4.362;2023-04-12T07:15:11;10.20;99.90
14517;DHT22;7344;50.864;4.362;2023-04-12T07:17:36;10.20;99.90
14517;DHT22;7344;50.864;4.362;2023-04-12T07:20:02;10.40;99.90
14517;DHT22;7344;50.864;4.362;2023-04-12T07:22:28;10.50;99.90
14517;DHT22;7344;50.864;4.362;2023-04-12T07:24:53;10.60;99.90
14517;DHT22;7344;50.864;4.362;2023-04-12T07:27:19;10.80;99.90
14517;DHT22;7344;50.864;4.362;2023-04-12T07:29:50;10.90;99.90
14517;DHT22;7344;50.864;4.362;2023-04-12T07:32:16;10.90;99.90
14517;DHT22;7344;50.864;4.362;2023-04-12T07:34:42;11.00;99.90
14517;DHT22;7344;50.864;4.362;2023-04-12T07:37:07;11.00;99.90
14517;DHT22;7344;50.864;4.362;2023-04-12T07:39:33;11.10;97.60
14517;DHT22;7344;50.864;4.362;2023-04-12T07:41:59;11.30;98.80
14517;DHT22;7344;50.864;4.362;2023-04-12T07:44:25;11.60;92.90
14517;DHT22;7344;50.864;4.362;2023-04-12T07:46:50;11.50;85.50
14517;DHT22;7344;50.864;4.362;2023-04-12T07:49:19;11.70;92.30
14517;DHT22;7344;50.864;4.362;2023-04-12T07:51:44;11.80;74.30
14517;DHT22;7344;50.864;4.362;2023-04-12T07:54:10;11.90;66.30
14517;DHT22;7344;50.864;4.362;2023-04-12T07:56:37;12.00;64.30
14517;DHT22;7344;50.864;4.362;2023-04-12T07:59:03;12.20;54.40
14517;DHT22;7344;50.864;4.362;2023-04-12T08:01:28;12.20;56.50
14517;DHT22;7344;50.864;4.362;2023-04-12T08:03:54;12.10;52.70
14517;DHT22;7344;50.864;4.362;2023-04-12T08:06:20;12.00;69.40
14517;DHT22;7344;50.864;4.362;2023-04-12T08:08:45;12.00;74.90
14517;DHT22;7344;50.864;4.362;2023-04-12T08:11:11;12.00;76.30
14517;DHT22;7344;50.864;4.362;2023-04-12T08:13:37;12.30;60.20
14517;DHT22;7344;50.864;4.362;2023-04-12T08:16:02;12.80;49.20
14517;DHT22;7344;50.864;4.362;2023-04-12T08:18:28;14.00;27.50
14517;DHT22;7344;50.864;4.362;2023-04-12T08:20:57;15.00;1.00
14517;DHT22;7344;50.864;4.362;2023-04-12T08:23:22;15.70;1.00
14517;DHT22;7344;50.864;4.362;2023-04-12T08:25:55;16.20;1.00
14517;DHT22;7344;50.864;4.362;2023-04-12T08:28:27;17.40;1.00
14517;DHT22;7344;50.864;4.362;2023-04-12T08:30:53;17.90;1.00
14517;DHT22;7344;50.864;4.362;2023-04-12T08:33:19;17.80;1.00
14517;DHT22;7344;50.864;4.362;2023-04-12T08:35:44;17.40;1.00
14517;DHT22;7344;50.864;4.362;2023-04-12T08:38:10;17.30;1.00
14517;DHT22;7344;50.864;4.362;2023-04-12T08:40:36;17.70;1.00
14517;DHT22;7344;50.864;4.362;2023-04-12T08:43:07;18.80;99.90
14517;DHT22;7344;50.864;4.362;2023-04-12T08:45:34;20.20;1.00
14517;DHT22;7344;50.864;4.362;2023-04-12T08:48:02;20.80;99.90
14517;DHT22;7344;50.864;4.362;2023-04-12T08:50:31;21.40;99.90
14517;DHT22;7344;50.864;4.362;2023-04-12T08:52:58;21.50;99.90
14517;DHT22;7344;50.864;4.362;2023-04-12T08:55:24;21.10;1.00
14517;DHT22;7344;50.864;4.362;2023-04-12T08:57:52;21.10;1.00
14517;DHT22;7344;50.864;4.362;2023-04-12T09:00:19;20.50;1.00
14517;DHT22;7344;50.864;4.362;2023-04-12T09:02:45;20.20;99.90
14517;DHT22;7344;50.864;4.362;2023-04-12T09:05:16;19.60;1.00
14517;DHT22;7344;50.864;4.362;2023-04-12T09:07:44;19.10;99.90
14517;DHT22;7344;50.864;4.362;2023-04-12T09:10:10;19.60;1.00
14517;DHT22;7344;50.864;4.362;2023-04-12T09:12:53;19.20;99.90
14517;DHT22;7344;50.864;4.362;2023-04-12T09:15:19;17.90;1.00
14517;DHT22;7344;50.864;4.362;2023-04-12T09:17:45;17.40;99.90
14517;DHT22;7344;50.864;4.362;2023-04-12T09:22:37;17.00;1.00
14517;DHT22;7344;50.864;4.362;2023-04-12T09:25:10;16.70;1.00
14517;DHT22;7344;50.864;4.362;2023-04-12T09:27:49;16.40;1.00
14517;DHT22;7344;50.864;4.362;2023-04-12T09:30:16;15.70;1.00
14517;DHT22;7344;50.864;4.362;2023-04-12T09:32:45;15.60;1.00
14517;DHT22;7344;50.864;4.362;2023-04-12T09:35:16;15.20;1.00
14517;DHT22;7344;50.864;4.362;2023-04-12T09:37:42;15.80;1.00
14517;DHT22;7344;50.864;4.362;2023-04-12T09:40:09;15.50;1.00
14517;DHT22;7344;50.864;4.362;2023-04-12T09:42:49;15.60;1.00
14517;DHT22;7344;50.864;4.362;2023-04-12T09:45:20;15.10;1.00
14517;DHT22;7344;50.864;4.362;2023-04-12T09:47:46;15.20;1.00
14517;DHT22;7344;50.864;4.362;2023-04-12T09:50:24;15.00;1.00
14517;DHT22;7344;50.864;4.362;2023-04-12T09:52:52;14.80;1.00
14517;DHT22;7344;50.864;4.362;2023-04-12T09:55:20;14.50;1.00
14517;DHT22;7344;50.864;4.362;2023-04-12T09:57:45;13.90;1.00
14517;DHT22;7344;50.864;4.362;2023-04-12T10:00:16;13.70;1.00
14517;DHT22;7344;50.864;4.362;2023-04-12T10:02:48;13.90;1.00
14517;DHT22;7344;50.864;4.362;2023-04-12T10:05:16;13.90;1.00
14517;DHT22;7344;50.864;4.362;2023-04-12T10:07:43;14.10;1.00
14517;DHT22;7344;50.864;4.362;2023-04-12T10:10:10;14.10;1.00
14517;DHT22;7344;50.864;4.362;2023-04-12T10:12:38;14.10;1.00
14517;DHT22;7344;50.864;4.362;2023-04-12T10:15:05;14.00;1.00
14517;DHT22;7344;50.864;4.362;2023-04-12T10:18:01;14.10;1.00
14517;DHT22;7344;50.864;4.362;2023-04-12T10:20:27;14.20;1.00
14517;DHT22;7344;50.864;4.362;2023-04-12T10:22:53;14.10;1.00
14517;DHT22;7344;50.864;4.362;2023-04-12T10:25:20;13.80;1.00
14517;DHT22;7344;50.864;4.362;2023-04-12T10:27:47;13.80;1.00
14517;DHT22;7344;50.864;4.362;2023-04-12T10:30:29;13.80;1.00
14517;DHT22;7344;50.864;4.362;2023-04-12T10:33:15;14.00;1.00
14517;DHT22;7344;50.864;4.362;2023-04-12T10:36:00;14.80;1.00
14517;DHT22;7344;50.864;4.362;2023-04-12T10:38:28;15.90;1.00
14517;DHT22;7344;50.864;4.362;2023-04-12T10:41:17;15.80;1.00
14517;DHT22;7344;50.864;4.362;2023-04-12T10:43:46;15.80;1.00
14517;DHT22;7344;50.864;4.362;2023-04-12T10:49:12;16.00;1.00
14517;DHT22;7344;50.864;4.362;2023-04-12T10:51:39;16.30;1.00
14517;DHT22;7344;50.864;4.362;2023-04-12T10:56:42;16.50;99.90
14517;DHT22;7344;50.864;4.362;2023-04-12T10:59:12;15.80;1.00
14517;DHT22;7344;50.864;4.362;2023-04-12T11:01:38;16.10;99.90
14517;DHT22;7344;50.864;4.362;2023-04-12T11:04:12;16.00;99.90
14517;DHT22;7344;50.864;4.362;2023-04-12T11:06:59;15.60;1.00
14517;DHT22;7344;50.864;4.362;2023-04-12T11:14:35;16.00;1.00
14517;DHT22;7344;50.864;4.362;2023-04-12T11:19:36;15.50;99.90
14517;DHT22;7344;50.864;4.362;2023-04-12T11:22:08;15.40;99.90
14517;DHT22;7344;50.864;4.362;2023-04-12T11:24:37;15.60;1.00
14517;DHT22;7344;50.864;4.362;2023-04-12T11:27:07;15.80;1.00
14517;DHT22;7344;50.864;4.362;2023-04-12T11:29:33;16.40;99.90
14517;DHT22;7344;50.864;4.362;2023-04-12T11:32:02;17.00;1.00
14517;DHT22;7344;50.864;4.362;2023-04-12T11:34:35;17.40;99.90
14517;DHT22;7344;50.864;4.362;2023-04-12T11:37:02;18.00;1.00
14517;DHT22;7344;50.864;4.362;2023-04-12T11:39:36;18.20;1.00
14517;DHT22;7344;50.864;4.362;2023-04-12T11:42:03;17.20;1.00
14517;DHT22;7344;50.864;4.362;2023-04-12T11:44:31;16.10;1.00
14517;DHT22;7344;50.864;4.362;2023-04-12T11:46:57;14.70;1.00
14517;DHT22;7344;50.864;4.362;2023-04-12T11:49:23;13.60;1.00
14517;DHT22;7344;50.864;4.362;2023-04-12T11:52:03;12.60;5.50
14517;DHT22;7344;50.864;4.362;2023-04-12T11:54:34;11.50;26.20
14517;DHT22;7344;50.864;4.362;2023-04-12T11:57:02;11.20;54.20
14517;DHT22;7344;50.864;4.362;2023-04-12T11:59:31;10.70;80.20
14517;DHT22;7344;50.864;4.362;2023-04-12T12:01:59;10.40;90.00
14517;DHT22;7344;50.864;4.362;2023-04-12T12:04:27;10.30;88.10
14517;DHT22;7344;50.864;4.362;2023-04-12T12:06:57;10.30;85.60
14517;DHT22;7344;50.864;4.362;2023-04-12T12:09:24;10.30;92.30
14517;DHT22;7344;50.864;4.362;2023-04-12T12:11:50;10.30;85.50
14517;DHT22;7344;50.864;4.362;2023-04-12T12:14:23;10.40;89.80
14517;DHT22;7344;50.864;4.362;2023-04-12T12:16:53;10.50;83.80
14517;DHT22;7344;50.864;4.362;2023-04-12T12:19:42;10.80;87.80
14517;DHT22;7344;50.864;4.362;2023-04-12T12:22:15;11.20;79.80
14517;DHT22;7344;50.864;4.362;2023-04-12T12:24:54;11.50;63.60
14517;DHT22;7344;50.864;4.362;2023-04-12T12:27:33;11.60;40.00
14517;DHT22;7344;50.864;4.362;2023-04-12T12:30:00;11.80;38.40
14517;DHT22;7344;50.864;4.362;2023-04-12T12:32:31;11.90;33.10
14517;DHT22;7344;50.864;4.362;2023-04-12T12:34:57;12.10;19.20
14517;DHT22;7344;50.864;4.362;2023-04-12T12:37:25;12.00;18.30
14517;DHT22;7344;50.864;4.362;2023-04-12T12:40:07;12.10;38.90
14517;DHT22;7344;50.864;4.362;2023-04-12T12:42:51;12.50;22.00
14517;DHT22;7344;50.864;4.362;2023-04-12T12:45:20;12.60;3.00
14517;DHT22;7344;50.864;4.362;2023-04-12T12:47:57;12.60;10.50
14517;DHT22;7344;50.864;4.362;2023-04-12T12:50:30;12.70;12.70
14517;DHT22;7344;50.864;4.362;2023-04-12T12:52:56;12.80;15.00
14517;DHT22;7344;50.864;4.362;2023-04-12T12:55:22;12.90;1.00
14517;DHT22;7344;50.864;4.362;2023-04-12T12:57:53;13.20;1.00
14517;DHT22;7344;50.864;4.362;2023-04-12T13:00:20;13.20;1.00
14517;DHT22;7344;50.864;4.362;2023-04-12T13:02:49;12.90;1.00
14517;DHT22;7344;50.864;4.362;2023-04-12T13:05:15;12.80;1.00
14517;DHT22;7344;50.864;4.362;2023-04-12T13:07:44;12.80;1.00
14517;DHT22;7344;50.864;4.362;2023-04-12T13:10:10;13.00;1.00
14517;DHT22;7344;50.864;4.362;2023-04-12T13:12:36;12.90;1.00
14517;DHT22;7344;50.864;4.362;2023-04-12T13:15:02;13.10;1.00
14517;DHT22;7344;50.864;4.362;2023-04-12T13:17:28;13.20;1.00
14517;DHT22;7344;50.864;4.362;2023-04-12T13:19:54;13.40;1.00
14517;DHT22;7344;50.864;4.362;2023-04-12T13:22:20;13.40;1.00
14517;DHT22;7344;50.864;4.362;2023-04-12T13:24:46;13.10;1.00
14517;DHT22;7344;50.864;4.362;2023-04-12T13:27:12;13.20;1.00
14517;DHT22;7344;50.864;4.362;2023-04-12T13:29:38;12.80;1.00
14517;DHT22;7344;50.864;4.362;2023-04-12T13:32:04;12.70;1.00
14517;DHT22;7344;50.864;4.362;2023-04-12T13:34:32;12.60;1.00
14517;DHT22;7344;50.864;4.362;2023-04-12T13:36:58;12.60;1.00
14517;DHT22;7344;50.864;4.362;2023-04-12T13:39:24;12.40;1.00
14517;DHT22;7344;50.864;4.362;2023-04-12T13:41:52;12.40;1.00
14517;DHT22;7344;50.864;4.362;2023-04-12T13:44:18;12.20;1.00
14517;DHT22;7344;50.864;4.362;2023-04-12T13:46:44;12.30;1.00
14517;DHT22;7344;50.864;4.362;2023-04-12T13:49:10;12.30;1.00
14517;DHT22;7344;50.864;4.362;2023-04-12T13:51:35;12.20;6.50
14517;DHT22;7344;50.864;4.362;2023-04-12T13:54:01;12.00;17.50
14517;DHT22;7344;50.864;4.362;2023-04-12T13:56:27;11.70;9.80
14517;DHT22;7344;50.864;4.362;2023-04-12T13:58:56;11.40;37.10
14517;DHT22;7344;50.864;4.362;2023-04-12T14:01:23;11.10;46.70
14517;DHT22;7344;50.864;4.362;2023-04-12T14:03:50;10.90;42.10
14517;DHT22;7344;50.864;4.362;2023-04-12T14:06:15;10.80;43.00
14517;DHT22;7344;50.864;4.362;2023-04-12T14:08:44;10.70;44.90
14517;DHT22;7344;50.864;4.362;2023-04-12T14:11:10;10.70;60.20
14517;DHT22;7344;50.864;4.362;2023-04-12T14:13:35;10.70;48.00
14517;DHT22;7344;50.864;4.362;2023-04-12T14:16:04;10.80;41.20
14517;DHT22;7344;50.864;4.362;2023-04-12T14:18:31;10.80;41.90
14517;DHT22;7344;50.864;4.362;2023-04-12T14:20:57;11.00;38.70
14517;DHT22;7344;50.864;4.362;2023-04-12T14:23:24;11.10;30.90
14517;DHT22;7344;50.864;4.362;2023-04-12T14:25:51;11.40;25.20
14517;DHT22;7344;50.864;4.362;2023-04-12T14:28:17;11.70;7.40
14517;DHT22;7344;50.864;4.362;2023-04-12T14:30:47;11.90;1.00
14517;DHT22;7344;50.864;4.362;2023-04-12T14:33:17;12.10;1.00
14517;DHT22;7344;50.864;4.362;2023-04-12T14:35:43;12.20;1.00
14517;DHT22;7344;50.864;4.362;2023-04-12T14:38:15;12.40;1.00
14517;DHT22;7344;50.864;4.362;2023-04-12T14:40:41;12.50;1.00
14517;DHT22;7344;50.864;4.362;2023-04-12T14:43:06;12.60;1.00
14517;DHT22;7344;50.864;4.362;2023-04-12T14:45:32;12.70;1.00
14517;DHT22;7344;50.864;4.362;2023-04-12T14:48:00;12.80;1.00
14517;DHT22;7344;50.864;4.362;2023-04-12T14:50:26;12.80;1.00
14517;DHT22;7344;50.864;4.362;2023-04-12T14:52:51;12.70;1.00
14517;DHT22;7344;50.864;4.362;2023-04-12T14:55:18;12.50;1.00
14517;DHT22;7344;50.864;4.362;2023-04-12T14:57:46;12.50;1.00
14517;DHT22;7344;50.864;4.362;2023-04-12T15:00:12;12.60;1.00
14517;DHT22;7344;50.864;4.362;2023-04-12T15:02:39;12.60;1.00
14517;DHT22;7344;50.864;4.362;2023-04-12T15:05:05;12.70;1.00
14517;DHT22;7344;50.864;4.362;2023-04-12T15:07:33;12.80;1.00
14517;DHT22;7344;50.864;4.362;2023-04-12T15:09:58;12.90;1.00
14517;DHT22;7344;50.864;4.362;2023-04-12T15:12:25;13.10;1.00
14517;DHT22;7344;50.864;4.362;2023-04-12T15:15:11;13.20;1.00
14517;DHT22;7344;50.864;4.362;2023-04-12T15:17:36;13.40;1.00
14517;DHT22;7344;50.864;4.362;2023-04-12T15:20:05;13.60;1.00
14517;DHT22;7344;50.864;4.362;2023-04-12T15:22:49;13.50;1.00
14517;DHT22;7344;50.864;4.362;2023-04-12T15:25:14;13.40;99.90
14517;DHT22;7344;50.864;4.362;2023-04-12T15:27:40;13.40;93.50
14517;DHT22;7344;50.864;4.362;2023-04-12T15:30:12;13.60;99.90
14517;DHT22;7344;50.864;4.362;2023-04-12T15:32:39;13.50;1.00
14517;DHT22;7344;50.864;4.362;2023-04-12T15:35:06;13.40;1.00
14517;DHT22;7344;50.864;4.362;2023-04-12T15:37:41;13.30;99.90
14517;DHT22;7344;50.864;4.362;2023-04-12T15:40:07;13.30;1.00
14517;DHT22;7344;50.864;4.362;2023-04-12T15:42:43;13.40;99.90
14517;DHT22;7344;50.864;4.362;2023-04-12T15:45:09;13.50;99.90
14517;DHT22;7344;50.864;4.362;2023-04-12T15:47:35;13.50;1.00
14517;DHT22;7344;50.864;4.362;2023-04-12T15:50:06;13.30;99.90
14517;DHT22;7344;50.864;4.362;2023-04-12T15:52:32;13.30;1.00
14517;DHT22;7344;50.864;4.362;2023-04-12T15:54:58;13.20;99.90
14517;DHT22;7344;50.864;4.362;2023-04-12T15:57:30;13.10;99.90
14517;DHT22;7344;50.864;4.362;2023-04-12T15:59:58;13.10;85.50
14517;DHT22;7344;50.864;4.362;2023-04-12T16:02:44;13.00;1.00
14517;DHT22;7344;50.864;4.362;2023-04-12T16:05:14;13.10;1.00
14517;DHT22;7344;50.864;4.362;2023-04-12T16:07:40;13.10;1.00
14517;DHT22;7344;50.864;4.362;2023-04-12T16:10:06;13.10;1.00
14517;DHT22;7344;50.864;4.362;2023-04-12T16:12:32;12.90;1.00
14517;DHT22;7344;50.864;4.362;2023-04-12T16:14:58;12.70;99.90
14517;DHT22;7344;50.864;4.362;2023-04-12T16:17:24;12.50;99.90
14517;DHT22;7344;50.864;4.362;2023-04-12T16:19:49;12.50;99.90
14517;DHT22;7344;50.864;4.362;2023-04-12T16:22:15;12.40;1.00
14517;DHT22;7344;50.864;4.362;2023-04-12T16:24:41;12.10;99.90
14517;DHT22;7344;50.864;4.362;2023-04-12T16:27:07;12.00;1.00
14517;DHT22;7344;50.864;4.362;2023-04-12T16:29:33;11.90;99.90